Terminal Aerodrome Forecast
Issued by NWS Boise, ID

Home | Current Version | Previous Version | Text Only | Print | Product List | Glossary On
Versions: 1 2 3 4 5 6 7 8 9 10 11 12 13 14 15 16 17 18 19 20 21 22 23 24 25 26 27 28 29 30 31 32 33 34 35 36 37
000
FTUS45 KBOI 171720
TAFBOI
TAF
KBOI 171720Z 1718/1818 32006KT P6SM BKN200
     FM172000 13006KT P6SM BKN130 PROB30 1808/1812 VRB07G17KT P6SM
      -SHRA BKN110
     FM181200 32006KT P6SM VCSH BKN120 OVC200=

USA.gov is the U.S. government's official web portal to all federal, state and local government web resources and services.